Time,TemperatureF,DewpointF,PressureIn,WindDirection,WindDirectionDegrees,WindSpeedMPH,WindSpeedGustMPH,Humidity,HourlyPrecipIn,Conditions,Clouds,dailyrainin,SolarRadiationWatts/m^2,SoftwareType,DateUTC
2013-06-03 00:12:00,41.0,35.0,-100.00,NW,326,9.0,12.0,78,0.00,,,0.66,0.000000,,2013-06-03 06:12:00,
2013-06-03 00:22:00,41.0,35.0,-100.00,NW,326,9.0,12.0,78,0.00,,,0.66,0.000000,,2013-06-03 06:22:00,
2013-06-03 00:32:00,41.0,35.0,-100.00,NW,326,9.0,12.0,78,0.00,,,0.66,0.000000,,2013-06-03 06:32:00,
2013-06-03 00:42:00,41.0,35.0,-100.00,NW,326,9.0,12.0,78,0.00,,,0.66,0.000000,,2013-06-03 06:42:00,
2013-06-03 00:52:00,41.0,35.0,-100.00,NW,326,9.0,12.0,78,0.00,,,0.66,0.000000,,2013-06-03 06:52:00,
2013-06-03 01:12:00,39.0,34.0,-100.00,WNW,300,16.0,17.0,81,0.00,,,0.66,0.000000,,2013-06-03 07:12:00,
2013-06-03 01:22:00,39.0,34.0,-100.00,WNW,300,16.0,17.0,81,0.00,,,0.66,0.000000,,2013-06-03 07:22:00,
2013-06-03 01:32:00,39.0,34.0,-100.00,WNW,300,16.0,17.0,81,0.00,,,0.66,0.000000,,2013-06-03 07:32:00,
2013-06-03 01:42:00,39.0,34.0,-100.00,WNW,300,16.0,17.0,81,0.00,,,0.66,0.000000,,2013-06-03 07:42:00,
2013-06-03 01:52:00,39.0,34.0,-100.00,WNW,300,16.0,17.0,81,0.00,,,0.66,0.000000,,2013-06-03 07:52:00,
2013-06-03 02:12:00,39.0,33.0,-100.00,NW,312,10.0,23.0,80,0.00,,,0.66,0.000000,,2013-06-03 08:12:00,
2013-06-03 02:22:00,39.0,33.0,-100.00,NW,312,10.0,23.0,80,0.00,,,0.66,0.000000,,2013-06-03 08:22:00,
2013-06-03 02:32:00,39.0,33.0,-100.00,NW,312,10.0,23.0,80,0.00,,,0.66,0.000000,,2013-06-03 08:32:00,
2013-06-03 02:42:00,39.0,33.0,-100.00,NW,312,10.0,23.0,80,0.00,,,0.66,0.000000,,2013-06-03 08:42:00,
2013-06-03 02:51:00,39.0,33.0,-100.00,NW,312,10.0,23.0,80,0.00,,,0.66,0.000000,,2013-06-03 08:51:00,
2013-06-03 03:12:00,38.0,34.0,-100.00,WNW,291,12.0,25.0,84,0.00,,,0.66,0.000000,,2013-06-03 09:12:00,
2013-06-03 03:22:00,38.0,34.0,-100.00,WNW,291,12.0,25.0,84,0.00,,,0.66,0.000000,,2013-06-03 09:22:00,
2013-06-03 03:33:00,38.0,34.0,-100.00,WNW,291,12.0,25.0,84,0.00,,,0.66,0.000000,,2013-06-03 09:33:00,
2013-06-03 03:42:00,38.0,34.0,-100.00,WNW,291,12.0,25.0,84,0.00,,,0.66,0.000000,,2013-06-03 09:42:00,
2013-06-03 03:52:00,38.0,34.0,-100.00,WNW,291,12.0,25.0,84,0.00,,,0.66,0.000000,,2013-06-03 09:52:00,
2013-06-03 04:12:00,37.0,32.0,-100.00,West,270,9.0,24.0,82,0.00,,,0.66,0.000000,,2013-06-03 10:12:00,
2013-06-03 04:22:00,37.0,32.0,-100.00,West,270,9.0,24.0,82,0.00,,,0.66,0.000000,,2013-06-03 10:22:00,
2013-06-03 04:33:00,37.0,32.0,-100.00,West,270,9.0,24.0,82,0.00,,,0.66,0.000000,,2013-06-03 10:33:00,
2013-06-03 04:42:00,37.0,32.0,-100.00,West,270,9.0,24.0,82,0.00,,,0.66,0.000000,,2013-06-03 10:42:00,
2013-06-03 04:52:00,37.0,32.0,-100.00,West,270,9.0,24.0,82,0.00,,,0.66,0.000000,,2013-06-03 10:52:00,
2013-06-03 05:12:00,38.0,34.0,-100.00,West,262,10.0,20.0,84,0.00,,,0.66,0.000000,,2013-06-03 11:12:00,
2013-06-03 05:22:00,38.0,34.0,-100.00,West,262,10.0,20.0,84,0.00,,,0.66,0.000000,,2013-06-03 11:22:00,
2013-06-03 05:32:00,38.0,34.0,-100.00,West,262,10.0,20.0,84,0.00,,,0.66,0.000000,,2013-06-03 11:32:00,
2013-06-03 05:42:00,38.0,34.0,-100.00,West,262,10.0,20.0,84,0.00,,,0.66,0.000000,,2013-06-03 11:42:00,
2013-06-03 05:52:00,38.0,34.0,-100.00,West,262,10.0,20.0,84,0.00,,,0.66,0.000000,,2013-06-03 11:52:00,
2013-06-03 06:12:00,37.0,34.0,-100.00,West,263,9.0,16.0,87,0.05,,,0.71,0.000000,,2013-06-03 12:12:00,
2013-06-03 06:22:00,37.0,34.0,-100.00,West,263,9.0,16.0,87,0.05,,,0.71,0.000000,,2013-06-03 12:22:00,
2013-06-03 06:32:00,37.0,34.0,-100.00,West,263,9.0,16.0,87,0.05,,,0.71,0.000000,,2013-06-03 12:32:00,
2013-06-03 06:42:00,37.0,34.0,-100.00,West,263,9.0,16.0,87,0.05,,,0.71,0.000000,,2013-06-03 12:42:00,
2013-06-03 06:52:00,37.0,34.0,-100.00,West,263,9.0,16.0,87,0.05,,,0.71,0.000000,,2013-06-03 12:52:00,
2013-06-03 07:12:00,37.0,34.0,-100.00,WSW,256,9.0,26.0,89,0.04,,,0.75,28.000000,,2013-06-03 13:12:00,
2013-06-03 07:22:00,37.0,34.0,-100.00,WSW,256,9.0,26.0,89,0.04,,,0.75,28.000000,,2013-06-03 13:22:00,
2013-06-03 07:32:00,37.0,34.0,-100.00,WSW,256,9.0,26.0,89,0.04,,,0.75,28.000000,,2013-06-03 13:32:00,
2013-06-03 07:42:00,37.0,34.0,-100.00,WSW,256,9.0,26.0,89,0.04,,,0.75,28.000000,,2013-06-03 13:42:00,
2013-06-03 07:52:00,37.0,34.0,-100.00,WSW,256,9.0,26.0,89,0.04,,,0.75,28.000000,,2013-06-03 13:52:00,
2013-06-03 08:12:00,38.0,35.0,-100.00,WSW,254,9.0,19.0,90,0.02,,,0.77,86.000000,,2013-06-03 14:12:00,
2013-06-03 08:22:00,38.0,35.0,-100.00,WSW,254,9.0,19.0,90,0.02,,,0.77,86.000000,,2013-06-03 14:22:00,
2013-06-03 08:32:00,38.0,35.0,-100.00,WSW,254,9.0,19.0,90,0.02,,,0.77,86.000000,,2013-06-03 14:32:00,
2013-06-03 08:42:00,38.0,35.0,-100.00,WSW,254,9.0,19.0,90,0.02,,,0.77,86.000000,,2013-06-03 14:42:00,
2013-06-03 08:52:00,38.0,35.0,-100.00,WSW,254,9.0,19.0,90,0.02,,,0.77,86.000000,,2013-06-03 14:52:00,
2013-06-03 09:12:00,40.0,35.0,-100.00,West,274,14.0,20.0,83,0.00,,,0.77,232.000000,,2013-06-03 15:12:00,
2013-06-03 09:22:00,40.0,35.0,-100.00,West,274,14.0,20.0,83,0.00,,,0.77,232.000000,,2013-06-03 15:22:00,
2013-06-03 09:33:00,40.0,35.0,-100.00,West,274,14.0,20.0,83,0.00,,,0.77,232.000000,,2013-06-03 15:33:00,
2013-06-03 09:43:00,40.0,35.0,-100.00,West,274,14.0,20.0,83,0.00,,,0.77,232.000000,,2013-06-03 15:43:00,
2013-06-03 09:53:00,40.0,35.0,-100.00,West,274,14.0,20.0,83,0.00,,,0.77,232.000000,,2013-06-03 15:53:00,
2013-06-03 10:12:00,42.0,36.0,-100.00,WNW,284,14.0,24.0,80,0.00,,,0.77,427.000000,,2013-06-03 16:12:00,
2013-06-03 10:23:00,42.0,36.0,-100.00,WNW,284,14.0,24.0,80,0.00,,,0.77,427.000000,,2013-06-03 16:23:00,
2013-06-03 10:33:00,42.0,36.0,-100.00,WNW,284,14.0,24.0,80,0.00,,,0.77,427.000000,,2013-06-03 16:33:00,
2013-06-03 10:42:00,42.0,36.0,-100.00,WNW,284,14.0,24.0,80,0.00,,,0.77,427.000000,,2013-06-03 16:42:00,
2013-06-03 10:53:00,42.0,36.0,-100.00,WNW,284,14.0,24.0,80,0.00,,,0.77,427.000000,,2013-06-03 16:53:00,
2013-06-03 11:12:00,42.0,35.0,-100.00,WNW,292,19.0,22.0,75,0.01,,,0.78,900.000000,,2013-06-03 17:12:00,
2013-06-03 11:22:00,42.0,35.0,-100.00,WNW,292,19.0,22.0,75,0.01,,,0.78,900.000000,,2013-06-03 17:22:00,
2013-06-03 11:33:00,42.0,35.0,-100.00,WNW,292,19.0,22.0,75,0.01,,,0.78,900.000000,,2013-06-03 17:33:00,
2013-06-03 11:42:00,42.0,35.0,-100.00,WNW,292,19.0,22.0,75,0.01,,,0.78,900.000000,,2013-06-03 17:42:00,
2013-06-03 11:52:00,42.0,35.0,-100.00,WNW,292,19.0,22.0,75,0.01,,,0.78,900.000000,,2013-06-03 17:52:00,
2013-06-03 12:12:00,46.0,37.0,-100.00,West,268,16.0,30.0,70,0.00,,,0.78,974.000000,,2013-06-03 18:12:00,
2013-06-03 12:22:00,46.0,37.0,-100.00,West,268,16.0,30.0,70,0.00,,,0.78,974.000000,,2013-06-03 18:22:00,
2013-06-03 12:32:00,46.0,37.0,-100.00,West,268,16.0,30.0,70,0.00,,,0.78,974.000000,,2013-06-03 18:32:00,
2013-06-03 12:42:00,46.0,37.0,-100.00,West,268,16.0,30.0,70,0.00,,,0.78,974.000000,,2013-06-03 18:42:00,
2013-06-03 12:52:00,46.0,37.0,-100.00,West,268,16.0,30.0,70,0.00,,,0.78,974.000000,,2013-06-03 18:52:00,
2013-06-03 13:12:00,47.0,38.0,-100.00,WNW,291,19.0,28.0,70,0.00,,,0.78,1365.000000,,2013-06-03 19:12:00,
2013-06-03 13:22:00,47.0,38.0,-100.00,WNW,291,19.0,28.0,70,0.00,,,0.78,1365.000000,,2013-06-03 19:22:00,
2013-06-03 13:32:00,47.0,38.0,-100.00,WNW,291,19.0,28.0,70,0.00,,,0.78,1365.000000,,2013-06-03 19:32:00,
2013-06-03 13:42:00,47.0,38.0,-100.00,WNW,291,19.0,28.0,70,0.00,,,0.78,1365.000000,,2013-06-03 19:42:00,
2013-06-03 13:52:00,47.0,38.0,-100.00,WNW,291,19.0,28.0,70,0.00,,,0.78,1365.000000,,2013-06-03 19:52:00,
2013-06-03 14:12:00,48.0,36.0,-100.00,West,278,14.0,36.0,63,0.00,,,0.78,952.000000,,2013-06-03 20:12:00,
2013-06-03 14:22:00,48.0,36.0,-100.00,West,278,14.0,36.0,63,0.00,,,0.78,952.000000,,2013-06-03 20:22:00,
2013-06-03 14:32:00,48.0,36.0,-100.00,West,278,14.0,36.0,63,0.00,,,0.78,952.000000,,2013-06-03 20:32:00,
2013-06-03 14:42:00,48.0,36.0,-100.00,West,278,14.0,36.0,63,0.00,,,0.78,952.000000,,2013-06-03 20:42:00,
2013-06-03 14:52:00,48.0,36.0,-100.00,West,278,14.0,36.0,63,0.00,,,0.78,952.000000,,2013-06-03 20:52:00,
2013-06-03 15:12:00,43.0,37.0,-100.00,NW,319,11.0,36.0,78,0.01,,,0.79,496.000000,,2013-06-03 21:12:00,
2013-06-03 15:22:00,43.0,37.0,-100.00,NW,319,11.0,36.0,78,0.01,,,0.79,496.000000,,2013-06-03 21:22:00,
2013-06-03 15:33:00,43.0,37.0,-100.00,NW,319,11.0,36.0,78,0.01,,,0.79,496.000000,,2013-06-03 21:33:00,
2013-06-03 15:43:00,43.0,37.0,-100.00,NW,319,11.0,36.0,78,0.01,,,0.79,496.000000,,2013-06-03 21:43:00,
2013-06-03 15:52:00,43.0,37.0,-100.00,NW,319,11.0,36.0,78,0.01,,,0.79,496.000000,,2013-06-03 21:52:00,
2013-06-03 16:12:00,45.0,39.0,-100.00,WNW,293,7.0,23.0,80,0.02,,,0.80,780.000000,,2013-06-03 22:12:00,
2013-06-03 16:22:00,45.0,39.0,-100.00,WNW,293,7.0,23.0,80,0.02,,,0.80,780.000000,,2013-06-03 22:22:00,
2013-06-03 16:32:00,45.0,39.0,-100.00,WNW,293,7.0,23.0,80,0.02,,,0.80,780.000000,,2013-06-03 22:32:00,
2013-06-03 16:42:00,45.0,39.0,-100.00,WNW,293,7.0,23.0,80,0.02,,,0.80,780.000000,,2013-06-03 22:42:00,
2013-06-03 16:52:00,45.0,39.0,-100.00,WNW,293,7.0,23.0,80,0.02,,,0.80,780.000000,,2013-06-03 22:52:00,
2013-06-03 17:12:00,42.0,36.0,-100.00,NW,324,8.0,21.0,78,0.04,,,0.69,544.000000,,2013-06-03 23:12:00,
2013-06-03 17:22:00,42.0,36.0,-100.00,NW,324,8.0,21.0,78,0.04,,,0.69,544.000000,,2013-06-03 23:22:00,
2013-06-03 17:32:00,42.0,36.0,-100.00,NW,324,8.0,21.0,78,0.04,,,0.69,544.000000,,2013-06-03 23:32:00,
2013-06-03 17:42:00,42.0,36.0,-100.00,NW,324,8.0,21.0,78,0.04,,,0.69,544.000000,,2013-06-03 23:42:00,
2013-06-03 17:52:00,42.0,36.0,-100.00,NW,324,8.0,21.0,78,0.04,,,0.69,544.000000,,2013-06-03 23:52:00,
2013-06-03 18:12:00,42.0,39.0,-100.00,West,263,7.0,18.0,89,0.02,,,0.49,325.000000,,2013-06-04 00:12:00,
2013-06-03 18:22:00,42.0,39.0,-100.00,West,263,7.0,18.0,89,0.02,,,0.49,325.000000,,2013-06-04 00:22:00,
2013-06-03 18:32:00,42.0,39.0,-100.00,West,263,7.0,18.0,89,0.02,,,0.49,325.000000,,2013-06-04 00:32:00,
2013-06-03 18:42:00,42.0,39.0,-100.00,West,263,7.0,18.0,89,0.02,,,0.49,325.000000,,2013-06-04 00:42:00,
2013-06-03 18:52:00,42.0,39.0,-100.00,West,263,7.0,18.0,89,0.02,,,0.49,325.000000,,2013-06-04 00:52:00,
2013-06-03 19:12:00,40.0,36.0,-100.00,West,276,9.0,16.0,86,0.01,,,0.28,431.000000,,2013-06-04 01:12:00,
2013-06-03 19:22:00,40.0,36.0,-100.00,West,276,9.0,16.0,86,0.01,,,0.28,431.000000,,2013-06-04 01:22:00,
2013-06-03 19:32:00,40.0,36.0,-100.00,West,276,9.0,16.0,86,0.01,,,0.28,431.000000,,2013-06-04 01:32:00,
2013-06-03 19:42:00,40.0,36.0,-100.00,West,276,9.0,16.0,86,0.01,,,0.28,431.000000,,2013-06-04 01:42:00,
2013-06-03 19:52:00,40.0,36.0,-100.00,West,276,9.0,16.0,86,0.01,,,0.28,431.000000,,2013-06-04 01:52:00,
2013-06-03 20:12:00,41.0,36.0,-100.00,West,272,7.0,14.0,83,0.00,,,0.23,262.000000,,2013-06-04 02:12:00,
2013-06-03 20:22:00,41.0,36.0,-100.00,West,272,7.0,14.0,83,0.00,,,0.23,262.000000,,2013-06-04 02:22:00,
2013-06-03 20:32:00,41.0,36.0,-100.00,West,272,7.0,14.0,83,0.00,,,0.23,262.000000,,2013-06-04 02:32:00,
2013-06-03 20:42:00,41.0,36.0,-100.00,West,272,7.0,14.0,83,0.00,,,0.23,262.000000,,2013-06-04 02:42:00,
2013-06-03 20:52:00,41.0,36.0,-100.00,West,272,7.0,14.0,83,0.00,,,0.23,262.000000,,2013-06-04 02:52:00,
2013-06-03 21:12:00,37.0,33.0,-100.00,WNW,297,13.0,15.0,84,0.01,,,-99.99,59.000000,,2013-06-04 03:12:00,
2013-06-03 21:22:00,37.0,33.0,-100.00,WNW,297,13.0,15.0,84,0.01,,,-99.99,59.000000,,2013-06-04 03:22:00,
2013-06-03 21:32:00,37.0,33.0,-100.00,WNW,297,13.0,15.0,84,0.01,,,-99.99,59.000000,,2013-06-04 03:32:00,
2013-06-03 21:43:00,37.0,33.0,-100.00,WNW,297,13.0,15.0,84,0.01,,,-99.99,59.000000,,2013-06-04 03:43:00,
2013-06-03 21:53:00,37.0,33.0,-100.00,WNW,297,13.0,15.0,84,0.01,,,-99.99,59.000000,,2013-06-04 03:53:00,
2013-06-03 22:13:00,38.0,34.0,-100.00,WSW,252,7.0,20.0,84,0.00,,,0.23,11.000000,,2013-06-04 04:13:00,
2013-06-03 22:23:00,38.0,34.0,-100.00,WSW,252,7.0,20.0,84,0.00,,,0.23,11.000000,,2013-06-04 04:23:00,
2013-06-03 22:33:00,38.0,34.0,-100.00,WSW,252,7.0,20.0,84,0.00,,,0.23,11.000000,,2013-06-04 04:33:00,
2013-06-03 22:42:00,38.0,34.0,-100.00,WSW,252,7.0,20.0,84,0.00,,,0.23,11.000000,,2013-06-04 04:42:00,
2013-06-03 22:52:00,38.0,34.0,-100.00,WSW,252,7.0,20.0,84,0.00,,,0.23,11.000000,,2013-06-04 04:52:00,
2013-06-03 23:12:00,38.0,33.0,-100.00,WNW,302,13.0,15.0,83,0.00,,,0.23,0.000000,,2013-06-04 05:12:00,
2013-06-03 23:22:00,38.0,33.0,-100.00,WNW,302,13.0,15.0,83,0.00,,,0.23,0.000000,,2013-06-04 05:22:00,
2013-06-03 23:32:00,38.0,33.0,-100.00,WNW,302,13.0,15.0,83,0.00,,,0.23,0.000000,,2013-06-04 05:32:00,
2013-06-03 23:42:00,38.0,33.0,-100.00,WNW,302,13.0,15.0,83,0.00,,,0.23,0.000000,,2013-06-04 05:42:00,
2013-06-03 23:52:00,38.0,33.0,-100.00,WNW,302,13.0,15.0,83,0.00,,,0.23,0.000000,,2013-06-04 05:52:00,